Archival Weather

Phoenix Goodyear

Goodyear, Arizona (KGYR)

Report from: Wednesday, December 6, 2023 5:47 AM MST
Current time: Wednesday, April 24, 2024 12:09 PM MST

Current weather – Weather history – Daily summaries
Weather forecast

Temperature14.0°C (57.2°F)
Dew point1.0°C (33.8°F)
Winds 6 kts (3.1 m/s, 6.9 mph) Northeast (40°)
Visibility10 mi. (16.1 km)
Clouds Few clouds 23,000 ft. (7,010 m)
Altimeter30.10 in.Hg (1019 mB)
Relative humidity41 %
Density altitude-222 ft. (-68 m)
Remarks First observation of the day
Flight conditions Visual Meteorological Conditions
Raw dataKGYR 061247Z 04006KT 10SM FEW230 14/01 A3010 RMK FIRST
An error has occurred. This application may no longer respond until reloaded. Reload 🗙